sensor_id;sensor_type;location;lat;lon;timestamp;pressure;altitude;pressure_sealevel;temperature;humidity
69751;BME280;57335;52.288;6.056;2023-04-23T00:00:35;100809.13;;;6.92;100.00
69751;BME280;57335;52.288;6.056;2023-04-23T00:03:07;100804.53;;;6.94;100.00
69751;BME280;57335;52.288;6.056;2023-04-23T00:05:34;100815.56;;;6.96;100.00
69751;BME280;57335;52.288;6.056;2023-04-23T00:08:01;100815.56;;;6.96;100.00
69751;BME280;57335;52.288;6.056;2023-04-23T00:10:28;100792.69;;;6.92;100.00
69751;BME280;57335;52.288;6.056;2023-04-23T00:12:55;100789.47;;;6.90;100.00
69751;BME280;57335;52.288;6.056;2023-04-23T00:15:24;100800.69;;;6.90;100.00
69751;BME280;57335;52.288;6.056;2023-04-23T00:17:51;100794.66;;;6.90;100.00
69751;BME280;57335;52.288;6.056;2023-04-23T00:20:17;100791.78;;;6.85;100.00
69751;BME280;57335;52.288;6.056;2023-04-23T00:22:43;100810.91;;;6.92;100.00
69751;BME280;57335;52.288;6.056;2023-04-23T00:25:10;100791.34;;;6.81;100.00
69751;BME280;57335;52.288;6.056;2023-04-23T00:27:36;100795.56;;;6.82;100.00
69751;BME280;57335;52.288;6.056;2023-04-23T00:30:03;100803.38;;;6.82;100.00
69751;BME280;57335;52.288;6.056;2023-04-23T00:32:30;100804.13;;;6.76;100.00
69751;BME280;57335;52.288;6.056;2023-04-23T00:34:56;100799.88;;;6.75;100.00
69751;BME280;57335;52.288;6.056;2023-04-23T00:37:22;100807.78;;;6.82;100.00
69751;BME280;57335;52.288;6.056;2023-04-23T00:39:49;100789.28;;;6.76;100.00
69751;BME280;57335;52.288;6.056;2023-04-23T00:42:15;100785.31;;;6.81;100.00
69751;BME280;57335;52.288;6.056;2023-04-23T00:44:42;100784.69;;;6.78;100.00
69751;BME280;57335;52.288;6.056;2023-04-23T00:47:09;100771.34;;;6.67;100.00
69751;BME280;57335;52.288;6.056;2023-04-23T00:49:36;100766.84;;;6.61;100.00
69751;BME280;57335;52.288;6.056;2023-04-23T00:52:02;100776.72;;;6.65;100.00
69751;BME280;57335;52.288;6.056;2023-04-23T00:54:29;100777.81;;;6.56;100.00
69751;BME280;57335;52.288;6.056;2023-04-23T00:56:55;100783.81;;;6.56;100.00
69751;BME280;57335;52.288;6.056;2023-04-23T00:59:21;100766.50;;;6.49;100.00
69751;BME280;57335;52.288;6.056;2023-04-23T01:01:47;100774.59;;;6.54;100.00
69751;BME280;57335;52.288;6.056;2023-04-23T01:04:15;100771.88;;;6.47;100.00
69751;BME280;57335;52.288;6.056;2023-04-23T01:06:43;100778.34;;;6.51;100.00
69751;BME280;57335;52.288;6.056;2023-04-23T01:09:10;100765.69;;;6.48;100.00
69751;BME280;57335;52.288;6.056;2023-04-23T01:11:39;100762.47;;;6.46;100.00
69751;BME280;57335;52.288;6.056;2023-04-23T01:14:08;100768.13;;;6.50;100.00
69751;BME280;57335;52.288;6.056;2023-04-23T01:16:36;100760.84;;;6.45;100.00
69751;BME280;57335;52.288;6.056;2023-04-23T01:19:06;100766.66;;;6.47;100.00
69751;BME280;57335;52.288;6.056;2023-04-23T01:21:34;100768.31;;;6.48;100.00
69751;BME280;57335;52.288;6.056;2023-04-23T01:24:02;100743.25;;;6.32;100.00
69751;BME280;57335;52.288;6.056;2023-04-23T01:26:29;100750.28;;;6.32;100.00
69751;BME280;57335;52.288;6.056;2023-04-23T01:28:55;100757.72;;;6.35;100.00
69751;BME280;57335;52.288;6.056;2023-04-23T01:31:22;100749.03;;;6.28;100.00
69751;BME280;57335;52.288;6.056;2023-04-23T01:33:50;100761.66;;;6.31;100.00
69751;BME280;57335;52.288;6.056;2023-04-23T01:36:17;100752.97;;;6.24;100.00
69751;BME280;57335;52.288;6.056;2023-04-23T01:38:44;100760.94;;;6.22;100.00
69751;BME280;57335;52.288;6.056;2023-04-23T01:41:10;100756.91;;;6.19;100.00
69751;BME280;57335;52.288;6.056;2023-04-23T01:43:37;100751.78;;;6.11;100.00
69751;BME280;57335;52.288;6.056;2023-04-23T01:46:05;100751.16;;;6.09;100.00
69751;BME280;57335;52.288;6.056;2023-04-23T01:48:31;100746.84;;;6.02;100.00
69751;BME280;57335;52.288;6.056;2023-04-23T01:50:59;100741.53;;;5.95;100.00
69751;BME280;57335;52.288;6.056;2023-04-23T01:53:25;100737.66;;;5.91;100.00
69751;BME280;57335;52.288;6.056;2023-04-23T01:55:53;100744.13;;;5.95;100.00
69751;BME280;57335;52.288;6.056;2023-04-23T01:58:20;100749.09;;;6.05;100.00
69751;BME280;57335;52.288;6.056;2023-04-23T02:00:46;100735.91;;;6.06;100.00
69751;BME280;57335;52.288;6.056;2023-04-23T02:03:13;100736.44;;;6.16;100.00
69751;BME280;57335;52.288;6.056;2023-04-23T02:05:40;100732.56;;;6.27;100.00
69751;BME280;57335;52.288;6.056;2023-04-23T02:08:08;100740.31;;;6.35;100.00
69751;BME280;57335;52.288;6.056;2023-04-23T02:10:34;100725.94;;;6.39;100.00
69751;BME280;57335;52.288;6.056;2023-04-23T02:13:01;100730.84;;;6.49;100.00
69751;BME280;57335;52.288;6.056;2023-04-23T02:15:28;100730.56;;;6.59;100.00
69751;BME280;57335;52.288;6.056;2023-04-23T02:17:55;100717.03;;;6.64;100.00
69751;BME280;57335;52.288;6.056;2023-04-23T02:20:21;100730.56;;;6.74;100.00
69751;BME280;57335;52.288;6.056;2023-04-23T02:22:48;100716.72;;;6.73;100.00
69751;BME280;57335;52.288;6.056;2023-04-23T02:25:15;100722.00;;;6.80;100.00
69751;BME280;57335;52.288;6.056;2023-04-23T02:27:42;100719.22;;;6.82;100.00
69751;BME280;57335;52.288;6.056;2023-04-23T02:30:09;100707.63;;;6.84;100.00
69751;BME280;57335;52.288;6.056;2023-04-23T02:32:36;100710.78;;;6.79;100.00
69751;BME280;57335;52.288;6.056;2023-04-23T02:35:03;100720.88;;;6.89;100.00
69751;BME280;57335;52.288;6.056;2023-04-23T02:37:34;100693.38;;;6.80;100.00
69751;BME280;57335;52.288;6.056;2023-04-23T02:40:01;100707.50;;;6.92;100.00
69751;BME280;57335;52.288;6.056;2023-04-23T02:42:28;100706.50;;;6.93;100.00
69751;BME280;57335;52.288;6.056;2023-04-23T02:44:54;100711.72;;;6.93;100.00
69751;BME280;57335;52.288;6.056;2023-04-23T02:47:21;100716.84;;;7.02;100.00
69751;BME280;57335;52.288;6.056;2023-04-23T02:49:47;100713.84;;;7.05;100.00
69751;BME280;57335;52.288;6.056;2023-04-23T02:52:13;100711.84;;;7.07;100.00
69751;BME280;57335;52.288;6.056;2023-04-23T02:54:40;100698.22;;;7.05;100.00
69751;BME280;57335;52.288;6.056;2023-04-23T02:57:06;100699.88;;;7.12;100.00
69751;BME280;57335;52.288;6.056;2023-04-23T02:59:33;100702.31;;;7.14;100.00
69751;BME280;57335;52.288;6.056;2023-04-23T03:01:59;100685.44;;;7.10;100.00
69751;BME280;57335;52.288;6.056;2023-04-23T03:04:25;100698.09;;;7.13;100.00
69751;BME280;57335;52.288;6.056;2023-04-23T03:06:52;100702.94;;;7.16;100.00
69751;BME280;57335;52.288;6.056;2023-04-23T03:09:18;100707.41;;;7.22;100.00
69751;BME280;57335;52.288;6.056;2023-04-23T03:11:44;100683.88;;;7.15;100.00
69751;BME280;57335;52.288;6.056;2023-04-23T03:14:11;100691.75;;;7.22;100.00
69751;BME280;57335;52.288;6.056;2023-04-23T03:16:37;100691.75;;;7.22;100.00
69751;BME280;57335;52.288;6.056;2023-04-23T03:19:04;100679.47;;;7.16;100.00
69751;BME280;57335;52.288;6.056;2023-04-23T03:21:30;100683.13;;;7.22;100.00
69751;BME280;57335;52.288;6.056;2023-04-23T03:23:56;100679.16;;;7.26;100.00
69751;BME280;57335;52.288;6.056;2023-04-23T03:26:23;100693.63;;;7.28;100.00
69751;BME280;57335;52.288;6.056;2023-04-23T03:28:49;100692.44;;;7.31;100.00
69751;BME280;57335;52.288;6.056;2023-04-23T03:31:15;100690.25;;;7.34;100.00
69751;BME280;57335;52.288;6.056;2023-04-23T03:33:42;100685.22;;;7.33;100.00
69751;BME280;57335;52.288;6.056;2023-04-23T03:36:08;100680.63;;;7.35;100.00
69751;BME280;57335;52.288;6.056;2023-04-23T03:38:35;100670.63;;;7.38;100.00
69751;BME280;57335;52.288;6.056;2023-04-23T03:41:01;100660.19;;;7.38;100.00
69751;BME280;57335;52.288;6.056;2023-04-23T03:43:27;100679.31;;;7.46;100.00
69751;BME280;57335;52.288;6.056;2023-04-23T03:45:54;100669.25;;;7.43;100.00
69751;BME280;57335;52.288;6.056;2023-04-23T03:48:20;100651.19;;;7.41;100.00
69751;BME280;57335;52.288;6.056;2023-04-23T03:50:46;100668.75;;;7.54;100.00
69751;BME280;57335;52.288;6.056;2023-04-23T03:53:13;100665.94;;;7.55;100.00
69751;BME280;57335;52.288;6.056;2023-04-23T03:55:39;100668.78;;;7.61;100.00
69751;BME280;57335;52.288;6.056;2023-04-23T03:58:05;100671.00;;;7.64;100.00
69751;BME280;57335;52.288;6.056;2023-04-23T04:00:32;100672.44;;;7.66;100.00
69751;BME280;57335;52.288;6.056;2023-04-23T04:02:58;100674.03;;;7.67;100.00
69751;BME280;57335;52.288;6.056;2023-04-23T04:05:25;100664.63;;;7.66;100.00
69751;BME280;57335;52.288;6.056;2023-04-23T04:07:51;100666.22;;;7.67;100.00
69751;BME280;57335;52.288;6.056;2023-04-23T04:10:17;100663.25;;;7.70;100.00
69751;BME280;57335;52.288;6.056;2023-04-23T04:12:44;100653.56;;;7.64;100.00
69751;BME280;57335;52.288;6.056;2023-04-23T04:15:10;100659.94;;;7.62;100.00
69751;BME280;57335;52.288;6.056;2023-04-23T04:17:36;100651.75;;;7.65;100.00
69751;BME280;57335;52.288;6.056;2023-04-23T04:20:03;100659.41;;;7.66;100.00
69751;BME280;57335;52.288;6.056;2023-04-23T04:22:30;100655.78;;;7.67;100.00
69751;BME280;57335;52.288;6.056;2023-04-23T04:24:56;100661.00;;;7.67;100.00
69751;BME280;57335;52.288;6.056;2023-04-23T04:27:22;100657.34;;;7.62;100.00
69751;BME280;57335;52.288;6.056;2023-04-23T04:29:49;100636.00;;;7.51;100.00
69751;BME280;57335;52.288;6.056;2023-04-23T04:32:15;100655.72;;;7.54;100.00
69751;BME280;57335;52.288;6.056;2023-04-23T04:34:41;100630.94;;;7.43;100.00
69751;BME280;57335;52.288;6.056;2023-04-23T04:37:08;100635.72;;;7.39;100.00
69751;BME280;57335;52.288;6.056;2023-04-23T04:39:35;100658.47;;;7.46;100.00
69751;BME280;57335;52.288;6.056;2023-04-23T04:42:02;100668.50;;;7.49;100.00
69751;BME280;57335;52.288;6.056;2023-04-23T04:44:29;100666.31;;;7.52;100.00
69751;BME280;57335;52.288;6.056;2023-04-23T04:46:55;100659.91;;;7.55;100.00
69751;BME280;57335;52.288;6.056;2023-04-23T04:49:22;100668.59;;;7.62;100.00
69751;BME280;57335;52.288;6.056;2023-04-23T04:51:48;100661.16;;;7.59;100.00
69751;BME280;57335;52.288;6.056;2023-04-23T04:54:14;100659.78;;;7.63;100.00
69751;BME280;57335;52.288;6.056;2023-04-23T04:56:41;100656.38;;;7.63;100.00
69751;BME280;57335;52.288;6.056;2023-04-23T04:59:07;100668.28;;;7.72;100.00
69751;BME280;57335;52.288;6.056;2023-04-23T05:01:34;100652.97;;;7.62;100.00
69751;BME280;57335;52.288;6.056;2023-04-23T05:04:00;100652.13;;;7.62;100.00
69751;BME280;57335;52.288;6.056;2023-04-23T05:06:27;100661.00;;;7.67;100.00
69751;BME280;57335;52.288;6.056;2023-04-23T05:08:53;100669.88;;;7.73;100.00
69751;BME280;57335;52.288;6.056;2023-04-23T05:11:19;100650.75;;;7.66;100.00
69751;BME280;57335;52.288;6.056;2023-04-23T05:13:46;100648.22;;;7.79;100.00
69751;BME280;57335;52.288;6.056;2023-04-23T05:16:13;100650.69;;;7.87;100.00
69751;BME280;57335;52.288;6.056;2023-04-23T05:18:40;100652.94;;;7.97;100.00
69751;BME280;57335;52.288;6.056;2023-04-23T05:21:07;100650.41;;;8.10;100.00
69751;BME280;57335;52.288;6.056;2023-04-23T05:23:34;100661.72;;;8.31;100.00
69751;BME280;57335;52.288;6.056;2023-04-23T05:26:00;100665.22;;;8.45;100.00
69751;BME280;57335;52.288;6.056;2023-04-23T05:28:27;100654.59;;;8.46;100.00
69751;BME280;57335;52.288;6.056;2023-04-23T05:30:53;100664.25;;;8.59;100.00
69751;BME280;57335;52.288;6.056;2023-04-23T05:33:19;100677.97;;;8.74;100.00
69751;BME280;57335;52.288;6.056;2023-04-23T05:35:46;100675.38;;;8.88;100.00
69751;BME280;57335;52.288;6.056;2023-04-23T05:38:12;100676.59;;;9.05;100.00
69751;BME280;57335;52.288;6.056;2023-04-23T05:40:39;100662.56;;;9.26;100.00
69751;BME280;57335;52.288;6.056;2023-04-23T05:43:05;100660.72;;;9.47;100.00
69751;BME280;57335;52.288;6.056;2023-04-23T05:45:31;100659.09;;;9.59;100.00
69751;BME280;57335;52.288;6.056;2023-04-23T05:47:58;100651.06;;;9.61;100.00
69751;BME280;57335;52.288;6.056;2023-04-23T05:50:24;100651.44;;;9.57;100.00
69751;BME280;57335;52.288;6.056;2023-04-23T05:52:51;100652.28;;;9.45;100.00
69751;BME280;57335;52.288;6.056;2023-04-23T05:55:19;100659.13;;;9.39;100.00
69751;BME280;57335;52.288;6.056;2023-04-23T05:57:45;100663.56;;;9.38;100.00
69751;BME280;57335;52.288;6.056;2023-04-23T06:00:12;100666.75;;;9.34;100.00
69751;BME280;57335;52.288;6.056;2023-04-23T06:02:39;100666.16;;;9.25;100.00
69751;BME280;57335;52.288;6.056;2023-04-23T06:05:06;100649.66;;;9.18;100.00
69751;BME280;57335;52.288;6.056;2023-04-23T06:07:34;100663.13;;;9.22;100.00
69751;BME280;57335;52.288;6.056;2023-04-23T06:10:00;100664.75;;;9.16;100.00
69751;BME280;57335;52.288;6.056;2023-04-23T06:12:26;100668.59;;;9.20;100.00
69751;BME280;57335;52.288;6.056;2023-04-23T06:14:53;100654.50;;;9.14;100.00
69751;BME280;57335;52.288;6.056;2023-04-23T06:17:19;100657.91;;;9.15;100.00
69751;BME280;57335;52.288;6.056;2023-04-23T06:19:46;100665.34;;;9.18;100.00
69751;BME280;57335;52.288;6.056;2023-04-23T06:22:12;100656.28;;;9.14;100.00
69751;BME280;57335;52.288;6.056;2023-04-23T06:24:38;100657.72;;;9.23;100.00
69751;BME280;57335;52.288;6.056;2023-04-23T06:27:05;100649.84;;;9.43;100.00
69751;BME280;57335;52.288;6.056;2023-04-23T06:29:31;100662.84;;;9.90;100.00
69751;BME280;57335;52.288;6.056;2023-04-23T06:32:00;100651.66;;;10.34;100.00
69751;BME280;57335;52.288;6.056;2023-04-23T06:34:27;100648.13;;;10.86;100.00
69751;BME280;57335;52.288;6.056;2023-04-23T06:36:53;100653.06;;;11.51;100.00
69751;BME280;57335;52.288;6.056;2023-04-23T06:39:20;100641.41;;;12.21;100.00
69751;BME280;57335;52.288;6.056;2023-04-23T06:41:46;100636.97;;;12.93;96.32
69751;BME280;57335;52.288;6.056;2023-04-23T06:44:12;100656.00;;;13.66;92.86
69751;BME280;57335;52.288;6.056;2023-04-23T06:46:39;100644.63;;;14.30;89.65
69751;BME280;57335;52.288;6.056;2023-04-23T06:49:05;100649.97;;;14.92;84.00
69751;BME280;57335;52.288;6.056;2023-04-23T06:51:32;100633.84;;;15.45;82.95
69751;BME280;57335;52.288;6.056;2023-04-23T06:53:59;100639.41;;;16.09;79.94
69751;BME280;57335;52.288;6.056;2023-04-23T06:56:25;100629.97;;;16.68;77.47
69751;BME280;57335;52.288;6.056;2023-04-23T06:58:52;100621.81;;;17.07;73.08
69751;BME280;57335;52.288;6.056;2023-04-23T07:01:18;100622.59;;;17.50;75.09
69751;BME280;57335;52.288;6.056;2023-04-23T07:03:45;100634.41;;;17.80;69.01
69751;BME280;57335;52.288;6.056;2023-04-23T07:06:11;100623.38;;;17.98;67.16
69751;BME280;57335;52.288;6.056;2023-04-23T07:08:38;100624.44;;;18.02;67.69
69751;BME280;57335;52.288;6.056;2023-04-23T07:11:04;100617.34;;;18.44;68.13
69751;BME280;57335;52.288;6.056;2023-04-23T07:13:31;100621.34;;;18.77;65.92
69751;BME280;57335;52.288;6.056;2023-04-23T07:15:57;100621.66;;;18.91;65.50
69751;BME280;57335;52.288;6.056;2023-04-23T07:18:23;100614.41;;;19.22;64.03
69751;BME280;57335;52.288;6.056;2023-04-23T07:20:49;100618.00;;;19.67;63.61
69751;BME280;57335;52.288;6.056;2023-04-23T07:23:16;100620.59;;;19.93;64.94
69751;BME280;57335;52.288;6.056;2023-04-23T07:25:42;100607.25;;;20.03;62.21
69751;BME280;57335;52.288;6.056;2023-04-23T07:28:09;100607.38;;;20.22;61.11
69751;BME280;57335;52.288;6.056;2023-04-23T07:30:35;100609.78;;;20.58;60.53
69751;BME280;57335;52.288;6.056;2023-04-23T07:33:01;100612.09;;;20.75;59.88
69751;BME280;57335;52.288;6.056;2023-04-23T07:35:28;100616.53;;;20.85;58.86
69751;BME280;57335;52.288;6.056;2023-04-23T07:37:54;100601.94;;;20.77;59.14
69751;BME280;57335;52.288;6.056;2023-04-23T07:40:21;100606.91;;;20.89;56.99
69751;BME280;57335;52.288;6.056;2023-04-23T07:42:49;100598.19;;;20.78;58.45
69751;BME280;57335;52.288;6.056;2023-04-23T07:45:17;100597.44;;;21.02;58.40
69751;BME280;57335;52.288;6.056;2023-04-23T07:47:43;100594.97;;;21.10;59.28
69751;BME280;57335;52.288;6.056;2023-04-23T07:50:10;100599.47;;;21.39;60.05
69751;BME280;57335;52.288;6.056;2023-04-23T07:52:36;100600.53;;;21.62;56.78
69751;BME280;57335;52.288;6.056;2023-04-23T07:55:04;100596.72;;;21.68;56.68
69751;BME280;57335;52.288;6.056;2023-04-23T07:57:30;100591.34;;;21.74;56.35
69751;BME280;57335;52.288;6.056;2023-04-23T07:59:57;100601.88;;;21.84;55.67
69751;BME280;57335;52.288;6.056;2023-04-23T08:02:23;100591.44;;;21.87;56.51
69751;BME280;57335;52.288;6.056;2023-04-23T08:04:49;100592.34;;;21.78;56.83
69751;BME280;57335;52.288;6.056;2023-04-23T08:07:16;100582.38;;;21.64;54.92
69751;BME280;57335;52.288;6.056;2023-04-23T08:09:42;100595.38;;;21.90;57.80
69751;BME280;57335;52.288;6.056;2023-04-23T08:12:09;100591.34;;;21.74;55.15
69751;BME280;57335;52.288;6.056;2023-04-23T08:14:36;100580.31;;;21.61;56.04
69751;BME280;57335;52.288;6.056;2023-04-23T08:17:02;100584.25;;;21.64;54.81
69751;BME280;57335;52.288;6.056;2023-04-23T08:19:28;100588.09;;;21.77;54.29
69751;BME280;57335;52.288;6.056;2023-04-23T08:21:55;100581.25;;;21.89;54.92
69751;BME280;57335;52.288;6.056;2023-04-23T08:24:21;100587.59;;;21.94;54.86
69751;BME280;57335;52.288;6.056;2023-04-23T08:26:47;100588.81;;;21.82;56.02
69751;BME280;57335;52.288;6.056;2023-04-23T08:29:14;100594.94;;;22.21;56.70
69751;BME280;57335;52.288;6.056;2023-04-23T08:31:40;100583.13;;;22.27;56.60
69751;BME280;57335;52.288;6.056;2023-04-23T08:34:07;100584.56;;;22.19;55.78
69751;BME280;57335;52.288;6.056;2023-04-23T08:36:33;100593.25;;;22.30;54.99
69751;BME280;57335;52.288;6.056;2023-04-23T08:38:59;100582.56;;;22.30;55.40
69751;BME280;57335;52.288;6.056;2023-04-23T08:41:33;100584.22;;;22.26;52.25
69751;BME280;57335;52.288;6.056;2023-04-23T08:44:08;100595.13;;;22.29;53.94
69751;BME280;57335;52.288;6.056;2023-04-23T08:46:41;100593.00;;;22.45;53.29
69751;BME280;57335;52.288;6.056;2023-04-23T08:49:12;100583.56;;;22.34;55.97
69751;BME280;57335;52.288;6.056;2023-04-23T08:51:42;100584.94;;;22.32;51.37
69751;BME280;57335;52.288;6.056;2023-04-23T08:54:14;100586.66;;;22.03;53.68
69751;BME280;57335;52.288;6.056;2023-04-23T08:56:41;100586.94;;;21.83;54.52
69751;BME280;57335;52.288;6.056;2023-04-23T08:59:07;100566.59;;;21.68;55.32
69751;BME280;57335;52.288;6.056;2023-04-23T09:01:34;100560.66;;;21.52;56.77
69751;BME280;57335;52.288;6.056;2023-04-23T09:04:01;100578.97;;;21.59;56.43
69751;BME280;57335;52.288;6.056;2023-04-23T09:06:29;100578.09;;;21.44;55.67
69751;BME280;57335;52.288;6.056;2023-04-23T09:08:55;100563.56;;;21.56;58.32
69751;BME280;57335;52.288;6.056;2023-04-23T09:11:22;100562.41;;;21.38;56.18
69751;BME280;57335;52.288;6.056;2023-04-23T09:13:49;100569.63;;;21.37;57.03
69751;BME280;57335;52.288;6.056;2023-04-23T09:16:15;100558.47;;;21.11;57.42
69751;BME280;57335;52.288;6.056;2023-04-23T09:18:42;100547.28;;;20.85;56.02
69751;BME280;57335;52.288;6.056;2023-04-23T09:21:09;100555.84;;;20.77;57.02
69751;BME280;57335;52.288;6.056;2023-04-23T09:23:38;100542.53;;;20.47;57.63
69751;BME280;57335;52.288;6.056;2023-04-23T09:26:07;100548.47;;;20.39;56.90
69751;BME280;57335;52.288;6.056;2023-04-23T09:28:34;100545.22;;;20.42;62.03
69751;BME280;57335;52.288;6.056;2023-04-23T09:31:03;100545.44;;;20.51;58.25
69751;BME280;57335;52.288;6.056;2023-04-23T09:33:30;100546.75;;;20.53;56.52
69751;BME280;57335;52.288;6.056;2023-04-23T09:36:08;100550.53;;;20.42;58.84
69751;BME280;57335;52.288;6.056;2023-04-23T09:38:35;100540.75;;;20.03;57.45
69751;BME280;57335;52.288;6.056;2023-04-23T09:41:20;100536.97;;;20.09;58.50
69751;BME280;57335;52.288;6.056;2023-04-23T09:43:46;100538.34;;;20.02;56.41
69751;BME280;57335;52.288;6.056;2023-04-23T09:46:13;100531.59;;;19.75;58.47
69751;BME280;57335;52.288;6.056;2023-04-23T09:48:40;100542.84;;;19.57;60.43
69751;BME280;57335;52.288;6.056;2023-04-23T09:51:07;100526.31;;;19.60;61.12
69751;BME280;57335;52.288;6.056;2023-04-23T09:53:41;100535.34;;;19.69;55.46
69751;BME280;57335;52.288;6.056;2023-04-23T09:56:08;100527.16;;;19.55;55.76
69751;BME280;57335;52.288;6.056;2023-04-23T09:58:34;100512.31;;;19.44;55.54
69751;BME280;57335;52.288;6.056;2023-04-23T10:01:08;100521.28;;;19.58;57.18
69751;BME280;57335;52.288;6.056;2023-04-23T10:03:34;100524.44;;;19.65;56.38
69751;BME280;57335;52.288;6.056;2023-04-23T10:06:01;100505.91;;;19.50;57.35
69751;BME280;57335;52.288;6.056;2023-04-23T10:08:30;100520.19;;;19.64;58.36
69751;BME280;57335;52.288;6.056;2023-04-23T10:10:57;100520.72;;;19.71;55.29
69751;BME280;57335;52.288;6.056;2023-04-23T10:13:43;100521.53;;;19.62;56.32
69751;BME280;57335;52.288;6.056;2023-04-23T10:16:10;100521.31;;;19.53;55.21
69751;BME280;57335;52.288;6.056;2023-04-23T10:18:50;100514.44;;;19.42;56.05
69751;BME280;57335;52.288;6.056;2023-04-23T10:21:17;100517.59;;;19.54;56.99
69751;BME280;57335;52.288;6.056;2023-04-23T10:23:46;100523.34;;;19.77;56.71
69751;BME280;57335;52.288;6.056;2023-04-23T10:26:14;100528.63;;;19.87;53.11
69751;BME280;57335;52.288;6.056;2023-04-23T10:28:44;100524.78;;;20.03;57.36
69751;BME280;57335;52.288;6.056;2023-04-23T10:31:11;100523.47;;;20.35;55.39
69751;BME280;57335;52.288;6.056;2023-04-23T10:33:39;100522.38;;;20.36;51.74
69751;BME280;57335;52.288;6.056;2023-04-23T10:36:22;100511.22;;;20.05;52.29
69751;BME280;57335;52.288;6.056;2023-04-23T10:38:48;100513.94;;;19.95;52.97
69751;BME280;57335;52.288;6.056;2023-04-23T10:41:30;100507.34;;;19.87;54.51
69751;BME280;57335;52.288;6.056;2023-04-23T10:44:00;100506.22;;;19.93;55.55
69751;BME280;57335;52.288;6.056;2023-04-23T10:46:27;100504.53;;;20.07;55.83
69751;BME280;57335;52.288;6.056;2023-04-23T10:49:11;100505.19;;;20.52;56.04
69751;BME280;57335;52.288;6.056;2023-04-23T10:51:38;100501.47;;;20.53;46.13
69751;BME280;57335;52.288;6.056;2023-04-23T10:54:08;100487.19;;;20.44;48.67
69751;BME280;57335;52.288;6.056;2023-04-23T10:56:37;100495.63;;;20.22;47.66
69751;BME280;57335;52.288;6.056;2023-04-23T10:59:06;100490.03;;;19.84;48.64
69751;BME280;57335;52.288;6.056;2023-04-23T11:01:33;100483.13;;;19.39;50.19
69751;BME280;57335;52.288;6.056;2023-04-23T11:04:18;100499.19;;;19.08;49.20
69751;BME280;57335;52.288;6.056;2023-04-23T11:09:27;100482.28;;;18.63;51.86
69751;BME280;57335;52.288;6.056;2023-04-23T11:11:54;100482.81;;;18.60;49.58
69751;BME280;57335;52.288;6.056;2023-04-23T11:14:32;100482.78;;;18.70;53.14
69751;BME280;57335;52.288;6.056;2023-04-23T11:16:58;100478.81;;;18.67;50.96
69751;BME280;57335;52.288;6.056;2023-04-23T11:19:25;100484.69;;;18.33;48.41
69751;BME280;57335;52.288;6.056;2023-04-23T11:22:01;100485.22;;;18.25;52.39
69751;BME280;57335;52.288;6.056;2023-04-23T11:24:32;100483.91;;;18.12;52.76
69751;BME280;57335;52.288;6.056;2023-04-23T11:26:59;100466.13;;;18.03;53.44
69751;BME280;57335;52.288;6.056;2023-04-23T11:29:26;100457.94;;;18.04;53.22
69751;BME280;57335;52.288;6.056;2023-04-23T11:31:53;100463.47;;;18.08;53.23
69751;BME280;57335;52.288;6.056;2023-04-23T11:34:28;100462.69;;;18.12;52.37
69751;BME280;57335;52.288;6.056;2023-04-23T11:36:57;100468.53;;;18.25;59.39
69751;BME280;57335;52.288;6.056;2023-04-23T11:39:24;100460.81;;;18.49;55.15
69751;BME280;57335;52.288;6.056;2023-04-23T11:41:50;100443.56;;;18.46;49.94
69751;BME280;57335;52.288;6.056;2023-04-23T11:44:18;100448.34;;;18.54;52.64
69751;BME280;57335;52.288;6.056;2023-04-23T11:46:49;100443.31;;;18.38;50.50
69751;BME280;57335;52.288;6.056;2023-04-23T11:49:16;100443.84;;;18.45;50.59
69751;BME280;57335;52.288;6.056;2023-04-23T11:51:43;100435.31;;;18.48;53.86
69751;BME280;57335;52.288;6.056;2023-04-23T11:54:10;100418.84;;;18.61;51.80
69751;BME280;57335;52.288;6.056;2023-04-23T11:56:37;100435.25;;;18.79;52.36
69751;BME280;57335;52.288;6.056;2023-04-23T11:59:04;100427.88;;;18.55;52.01
69751;BME280;57335;52.288;6.056;2023-04-23T12:01:48;100430.84;;;18.33;51.16
69751;BME280;57335;52.288;6.056;2023-04-23T12:04:19;100435.09;;;18.24;52.53
69751;BME280;57335;52.288;6.056;2023-04-23T12:06:47;100421.84;;;18.13;53.76
69751;BME280;57335;52.288;6.056;2023-04-23T12:09:15;100414.94;;;18.07;51.70
69751;BME280;57335;52.288;6.056;2023-04-23T12:11:42;100417.34;;;18.09;52.87
69751;BME280;57335;52.288;6.056;2023-04-23T12:14:10;100407.25;;;18.26;55.70
69751;BME280;57335;52.288;6.056;2023-04-23T12:16:44;100397.16;;;18.33;56.57
69751;BME280;57335;52.288;6.056;2023-04-23T12:19:16;100404.25;;;18.53;54.77
69751;BME280;57335;52.288;6.056;2023-04-23T12:21:50;100386.97;;;18.71;56.50
69751;BME280;57335;52.288;6.056;2023-04-23T12:24:17;100381.63;;;18.87;57.41
69751;BME280;57335;52.288;6.056;2023-04-23T12:26:43;100388.75;;;18.97;56.66
69751;BME280;57335;52.288;6.056;2023-04-23T12:29:11;100374.66;;;18.96;55.12
69751;BME280;57335;52.288;6.056;2023-04-23T12:31:38;100378.66;;;18.99;51.84
69751;BME280;57335;52.288;6.056;2023-04-23T12:34:06;100374.91;;;19.00;52.94
69751;BME280;57335;52.288;6.056;2023-04-23T12:36:34;100365.97;;;18.80;53.49
69751;BME280;57335;52.288;6.056;2023-04-23T12:39:24;100382.41;;;18.92;56.46
69751;BME280;57335;52.288;6.056;2023-04-23T12:42:02;100369.94;;;18.88;55.04
69751;BME280;57335;52.288;6.056;2023-04-23T12:44:33;100369.13;;;18.87;54.71
69751;BME280;57335;52.288;6.056;2023-04-23T12:47:02;100362.78;;;18.83;54.28
69751;BME280;57335;52.288;6.056;2023-04-23T12:49:30;100361.72;;;18.74;51.41
69751;BME280;57335;52.288;6.056;2023-04-23T12:51:58;100355.66;;;18.68;52.45
69751;BME280;57335;52.288;6.056;2023-04-23T12:54:26;100356.19;;;18.65;53.37